sensor_id;sensor_type;location;lat;lon;timestamp;temperature;humidity
21417;DHT22;10869;52.238;10.716;2023-11-19T04:02:19;8.00;99.90
21417;DHT22;10869;52.238;10.716;2023-11-19T04:04:45;8.00;99.90
21417;DHT22;10869;52.238;10.716;2023-11-19T04:07:11;8.00;99.90
21417;DHT22;10869;52.238;10.716;2023-11-19T04:09:37;8.00;99.90
21417;DHT22;10869;52.238;10.716;2023-11-19T04:12:03;8.10;99.90
21417;DHT22;10869;52.238;10.716;2023-11-19T04:14:29;8.10;99.90
21417;DHT22;10869;52.238;10.716;2023-11-19T04:16:55;8.10;99.90
21417;DHT22;10869;52.238;10.716;2023-11-19T04:19:21;8.10;99.90
21417;DHT22;10869;52.238;10.716;2023-11-19T04:21:47;8.20;99.90
21417;DHT22;10869;52.238;10.716;2023-11-19T04:24:13;8.20;99.90
21417;DHT22;10869;52.238;10.716;2023-11-19T04:26:43;8.20;99.90
21417;DHT22;10869;52.238;10.716;2023-11-19T04:29:12;8.20;99.90
21417;DHT22;10869;52.238;10.716;2023-11-19T04:31:38;8.20;99.90
21417;DHT22;10869;52.238;10.716;2023-11-19T04:34:05;8.20;99.90
21417;DHT22;10869;52.238;10.716;2023-11-19T04:36:32;8.30;99.90
21417;DHT22;10869;52.238;10.716;2023-11-19T04:38:59;8.30;99.90
21417;DHT22;10869;52.238;10.716;2023-11-19T04:41:25;8.40;99.90
21417;DHT22;10869;52.238;10.716;2023-11-19T04:43:55;8.40;99.90
21417;DHT22;10869;52.238;10.716;2023-11-19T04:46:22;8.40;99.90
21417;DHT22;10869;52.238;10.716;2023-11-19T04:48:49;8.40;99.90
21417;DHT22;10869;52.238;10.716;2023-11-19T04:51:15;8.40;99.90
21417;DHT22;10869;52.238;10.716;2023-11-19T04:53:41;8.50;99.90
21417;DHT22;10869;52.238;10.716;2023-11-19T04:56:11;8.50;99.90
21417;DHT22;10869;52.238;10.716;2023-11-19T04:58:37;8.50;99.90
21417;DHT22;10869;52.238;10.716;2023-11-19T05:01:06;8.50;99.90
21417;DHT22;10869;52.238;10.716;2023-11-19T05:03:31;8.60;99.90
21417;DHT22;10869;52.238;10.716;2023-11-19T05:05:58;8.60;99.90
21417;DHT22;10869;52.238;10.716;2023-11-19T05:08:23;8.60;99.90
21417;DHT22;10869;52.238;10.716;2023-11-19T05:10:49;8.70;99.90
21417;DHT22;10869;52.238;10.716;2023-11-19T05:13:15;8.60;99.90
21417;DHT22;10869;52.238;10.716;2023-11-19T05:15:42;8.60;99.90
21417;DHT22;10869;52.238;10.716;2023-11-19T05:18:08;8.60;99.90
21417;DHT22;10869;52.238;10.716;2023-11-19T05:20:34;8.70;99.90
21417;DHT22;10869;52.238;10.716;2023-11-19T05:23:02;8.70;99.90
21417;DHT22;10869;52.238;10.716;2023-11-19T05:25:28;8.70;99.90
21417;DHT22;10869;52.238;10.716;2023-11-19T05:27:54;8.70;99.90
21417;DHT22;10869;52.238;10.716;2023-11-19T05:30:20;8.70;99.90
21417;DHT22;10869;52.238;10.716;2023-11-19T05:32:45;8.70;99.90
21417;DHT22;10869;52.238;10.716;2023-11-19T05:35:11;8.80;99.90
21417;DHT22;10869;52.238;10.716;2023-11-19T05:37:37;8.80;99.90
21417;DHT22;10869;52.238;10.716;2023-11-19T05:40:03;8.80;99.90
21417;DHT22;10869;52.238;10.716;2023-11-19T05:42:32;8.80;99.90
21417;DHT22;10869;52.238;10.716;2023-11-19T05:44:57;8.80;99.90
21417;DHT22;10869;52.238;10.716;2023-11-19T05:47:23;8.80;99.90
21417;DHT22;10869;52.238;10.716;2023-11-19T05:49:49;8.80;99.90
21417;DHT22;10869;52.238;10.716;2023-11-19T05:52:15;8.80;99.90
21417;DHT22;10869;52.238;10.716;2023-11-19T05:54:40;8.80;99.90
21417;DHT22;10869;52.238;10.716;2023-11-19T05:57:07;8.80;99.90
21417;DHT22;10869;52.238;10.716;2023-11-19T05:59:36;8.80;99.90
21417;DHT22;10869;52.238;10.716;2023-11-19T06:02:02;8.80;99.90
21417;DHT22;10869;52.238;10.716;2023-11-19T06:04:28;8.80;99.90
21417;DHT22;10869;52.238;10.716;2023-11-19T06:06:54;8.70;99.90
21417;DHT22;10869;52.238;10.716;2023-11-19T06:09:22;8.70;99.90
21417;DHT22;10869;52.238;10.716;2023-11-19T06:11:49;8.70;99.90
21417;DHT22;10869;52.238;10.716;2023-11-19T06:14:16;8.70;99.90
21417;DHT22;10869;52.238;10.716;2023-11-19T06:16:42;8.70;99.90
21417;DHT22;10869;52.238;10.716;2023-11-19T06:19:07;8.70;99.90
21417;DHT22;10869;52.238;10.716;2023-11-19T06:21:33;8.70;99.90
21417;DHT22;10869;52.238;10.716;2023-11-19T06:24:01;8.70;99.90
21417;DHT22;10869;52.238;10.716;2023-11-19T06:26:27;8.70;99.90
21417;DHT22;10869;52.238;10.716;2023-11-19T06:28:52;8.70;99.90
21417;DHT22;10869;52.238;10.716;2023-11-19T06:31:18;8.70;99.90
21417;DHT22;10869;52.238;10.716;2023-11-19T06:33:44;8.80;99.90
21417;DHT22;10869;52.238;10.716;2023-11-19T06:36:10;8.80;99.90
21417;DHT22;10869;52.238;10.716;2023-11-19T06:38:35;8.80;99.90
21417;DHT22;10869;52.238;10.716;2023-11-19T06:41:01;8.80;99.90
21417;DHT22;10869;52.238;10.716;2023-11-19T06:43:27;8.90;99.90
21417;DHT22;10869;52.238;10.716;2023-11-19T06:45:54;8.90;99.90
21417;DHT22;10869;52.238;10.716;2023-11-19T06:48:20;8.90;99.90
21417;DHT22;10869;52.238;10.716;2023-11-19T06:50:45;8.90;99.90
21417;DHT22;10869;52.238;10.716;2023-11-19T06:53:11;8.90;99.90
21417;DHT22;10869;52.238;10.716;2023-11-19T06:55:37;8.80;99.90
21417;DHT22;10869;52.238;10.716;2023-11-19T06:58:02;8.80;99.90
21417;DHT22;10869;52.238;10.716;2023-11-19T07:00:29;8.80;99.90
21417;DHT22;10869;52.238;10.716;2023-11-19T07:02:55;8.90;99.90
21417;DHT22;10869;52.238;10.716;2023-11-19T07:05:21;8.90;99.90
21417;DHT22;10869;52.238;10.716;2023-11-19T07:07:46;9.00;99.90
21417;DHT22;10869;52.238;10.716;2023-11-19T07:10:12;9.00;99.90
21417;DHT22;10869;52.238;10.716;2023-11-19T07:15:16;9.10;99.90
21417;DHT22;10869;52.238;10.716;2023-11-19T07:17:43;9.10;99.90
21417;DHT22;10869;52.238;10.716;2023-11-19T07:20:11;9.10;99.90
21417;DHT22;10869;52.238;10.716;2023-11-19T07:22:44;9.10;99.90
21417;DHT22;10869;52.238;10.716;2023-11-19T07:25:13;9.10;99.90
21417;DHT22;10869;52.238;10.716;2023-11-19T07:27:39;9.20;99.90
21417;DHT22;10869;52.238;10.716;2023-11-19T07:30:06;9.20;99.90
21417;DHT22;10869;52.238;10.716;2023-11-19T07:32:35;9.20;99.90
21417;DHT22;10869;52.238;10.716;2023-11-19T07:35:01;9.20;99.90
21417;DHT22;10869;52.238;10.716;2023-11-19T07:37:30;9.30;99.90
21417;DHT22;10869;52.238;10.716;2023-11-19T07:39:56;9.30;99.90
21417;DHT22;10869;52.238;10.716;2023-11-19T07:42:24;9.30;99.90
21417;DHT22;10869;52.238;10.716;2023-11-19T07:48:13;9.40;99.90
21417;DHT22;10869;52.238;10.716;2023-11-19T07:50:48;9.40;99.90
21417;DHT22;10869;52.238;10.716;2023-11-19T07:56:37;9.50;99.90
21417;DHT22;10869;52.238;10.716;2023-11-19T08:02:25;9.60;99.90
21417;DHT22;10869;52.238;10.716;2023-11-19T08:08:18;9.60;99.90
21417;DHT22;10869;52.238;10.716;2023-11-19T08:10:47;9.60;99.90
21417;DHT22;10869;52.238;10.716;2023-11-19T08:13:19;9.70;99.90
21417;DHT22;10869;52.238;10.716;2023-11-19T08:15:45;9.70;99.90
21417;DHT22;10869;52.238;10.716;2023-11-19T08:18:12;9.80;99.90
21417;DHT22;10869;52.238;10.716;2023-11-19T08:20:39;9.90;99.90
21417;DHT22;10869;52.238;10.716;2023-11-19T08:23:04;9.90;99.90
21417;DHT22;10869;52.238;10.716;2023-11-19T08:25:31;10.00;99.90
21417;DHT22;10869;52.238;10.716;2023-11-19T08:28:02;10.00;99.90
21417;DHT22;10869;52.238;10.716;2023-11-19T08:30:32;10.00;99.90
21417;DHT22;10869;52.238;10.716;2023-11-19T08:38:07;10.20;99.90
21417;DHT22;10869;52.238;10.716;2023-11-19T08:40:33;10.30;99.90
21417;DHT22;10869;52.238;10.716;2023-11-19T08:45:34;10.20;99.90
21417;DHT22;10869;52.238;10.716;2023-11-19T08:47:59;10.30;99.90
21417;DHT22;10869;52.238;10.716;2023-11-19T08:50:25;10.30;99.90
21417;DHT22;10869;52.238;10.716;2023-11-19T08:52:51;10.50;99.90
21417;DHT22;10869;52.238;10.716;2023-11-19T09:03:04;10.90;99.90
21417;DHT22;10869;52.238;10.716;2023-11-19T09:05:30;10.90;99.90
21417;DHT22;10869;52.238;10.716;2023-11-19T09:07:56;11.00;99.90
21417;DHT22;10869;52.238;10.716;2023-11-19T09:13:43;11.00;99.90
21417;DHT22;10869;52.238;10.716;2023-11-19T09:16:12;11.10;99.90
21417;DHT22;10869;52.238;10.716;2023-11-19T09:18:37;11.20;99.90
21417;DHT22;10869;52.238;10.716;2023-11-19T09:21:03;11.20;99.90
21417;DHT22;10869;52.238;10.716;2023-11-19T09:23:32;11.20;99.90
21417;DHT22;10869;52.238;10.716;2023-11-19T09:26:04;11.20;99.90
21417;DHT22;10869;52.238;10.716;2023-11-19T09:28:31;11.30;99.90
21417;DHT22;10869;52.238;10.716;2023-11-19T09:30:56;11.30;99.90
21417;DHT22;10869;52.238;10.716;2023-11-19T09:33:26;11.30;99.90
21417;DHT22;10869;52.238;10.716;2023-11-19T09:38:48;11.20;99.90
21417;DHT22;10869;52.238;10.716;2023-11-19T09:41:27;11.20;99.90
21417;DHT22;10869;52.238;10.716;2023-11-19T09:47:17;11.10;99.90
21417;DHT22;10869;52.238;10.716;2023-11-19T09:49:52;11.10;99.90
21417;DHT22;10869;52.238;10.716;2023-11-19T09:52:19;11.00;99.90
21417;DHT22;10869;52.238;10.716;2023-11-19T09:54:45;11.00;99.90
21417;DHT22;10869;52.238;10.716;2023-11-19T09:57:13;11.00;99.90
21417;DHT22;10869;52.238;10.716;2023-11-19T09:59:47;11.00;99.90
21417;DHT22;10869;52.238;10.716;2023-11-19T10:02:16;11.00;99.90
21417;DHT22;10869;52.238;10.716;2023-11-19T10:04:43;11.00;99.90
21417;DHT22;10869;52.238;10.716;2023-11-19T10:07:10;11.00;99.90
21417;DHT22;10869;52.238;10.716;2023-11-19T10:09:36;11.10;99.90
21417;DHT22;10869;52.238;10.716;2023-11-19T10:15:25;11.70;99.90
21417;DHT22;10869;52.238;10.716;2023-11-19T10:17:58;11.70;99.90
21417;DHT22;10869;52.238;10.716;2023-11-19T10:20:25;11.60;99.90
21417;DHT22;10869;52.238;10.716;2023-11-19T10:26:13;11.90;99.90
21417;DHT22;10869;52.238;10.716;2023-11-19T10:32:01;12.30;99.90
21417;DHT22;10869;52.238;10.716;2023-11-19T10:34:30;12.40;99.90
21417;DHT22;10869;52.238;10.716;2023-11-19T10:36:56;12.40;99.90
21417;DHT22;10869;52.238;10.716;2023-11-19T10:39:24;12.40;99.90
21417;DHT22;10869;52.238;10.716;2023-11-19T10:42:15;12.40;99.90
21417;DHT22;10869;52.238;10.716;2023-11-19T10:44:42;12.50;99.90
21417;DHT22;10869;52.238;10.716;2023-11-19T10:47:16;12.40;99.90
21417;DHT22;10869;52.238;10.716;2023-11-19T10:49:49;12.30;99.90
21417;DHT22;10869;52.238;10.716;2023-11-19T10:52:18;12.20;99.90
21417;DHT22;10869;52.238;10.716;2023-11-19T10:57:21;12.10;99.90
21417;DHT22;10869;52.238;10.716;2023-11-19T10:59:52;12.10;99.90
21417;DHT22;10869;52.238;10.716;2023-11-19T11:02:24;12.00;99.90
21417;DHT22;10869;52.238;10.716;2023-11-19T11:04:53;12.00;99.90
21417;DHT22;10869;52.238;10.716;2023-11-19T11:07:22;12.10;99.90
21417;DHT22;10869;52.238;10.716;2023-11-19T11:09:52;12.30;99.90
21417;DHT22;10869;52.238;10.716;2023-11-19T11:12:22;12.60;99.90
21417;DHT22;10869;52.238;10.716;2023-11-19T11:14:49;12.90;99.90
21417;DHT22;10869;52.238;10.716;2023-11-19T11:17:17;12.90;99.90
21417;DHT22;10869;52.238;10.716;2023-11-19T11:19:44;12.80;99.90
21417;DHT22;10869;52.238;10.716;2023-11-19T11:22:11;12.80;99.90
21417;DHT22;10869;52.238;10.716;2023-11-19T11:27:49;13.00;99.90
21417;DHT22;10869;52.238;10.716;2023-11-19T11:30:26;12.80;99.90
21417;DHT22;10869;52.238;10.716;2023-11-19T11:36:11;13.00;99.90
21417;DHT22;10869;52.238;10.716;2023-11-19T11:38:40;13.10;99.90
21417;DHT22;10869;52.238;10.716;2023-11-19T11:41:20;13.10;99.90
21417;DHT22;10869;52.238;10.716;2023-11-19T11:43:50;13.00;99.90
21417;DHT22;10869;52.238;10.716;2023-11-19T11:59:50;13.30;99.90
21417;DHT22;10869;52.238;10.716;2023-11-19T12:02:18;13.20;99.90
21417;DHT22;10869;52.238;10.716;2023-11-19T12:04:56;13.30;99.90
21417;DHT22;10869;52.238;10.716;2023-11-19T12:07:23;13.30;99.90
21417;DHT22;10869;52.238;10.716;2023-11-19T12:13:11;13.50;99.90
21417;DHT22;10869;52.238;10.716;2023-11-19T12:21:47;13.30;99.90
21417;DHT22;10869;52.238;10.716;2023-11-19T12:27:44;12.80;99.90
21417;DHT22;10869;52.238;10.716;2023-11-19T12:30:10;12.70;99.90
21417;DHT22;10869;52.238;10.716;2023-11-19T12:32:45;12.80;99.90
21417;DHT22;10869;52.238;10.716;2023-11-19T12:35:12;13.00;99.90
21417;DHT22;10869;52.238;10.716;2023-11-19T12:37:41;13.00;99.90
21417;DHT22;10869;52.238;10.716;2023-11-19T12:40:15;13.00;99.90
21417;DHT22;10869;52.238;10.716;2023-11-19T12:42:45;12.90;99.90
21417;DHT22;10869;52.238;10.716;2023-11-19T12:45:12;12.90;99.90
21417;DHT22;10869;52.238;10.716;2023-11-19T12:47:41;12.80;99.90
21417;DHT22;10869;52.238;10.716;2023-11-19T12:50:07;12.80;99.90
21417;DHT22;10869;52.238;10.716;2023-11-19T12:52:57;12.70;99.90
21417;DHT22;10869;52.238;10.716;2023-11-19T12:55:30;12.70;99.90
21417;DHT22;10869;52.238;10.716;2023-11-19T12:57:58;12.60;99.90
21417;DHT22;10869;52.238;10.716;2023-11-19T13:00:25;12.70;99.90
21417;DHT22;10869;52.238;10.716;2023-11-19T13:02:56;12.70;99.90
21417;DHT22;10869;52.238;10.716;2023-11-19T13:05:30;12.70;99.90
21417;DHT22;10869;52.238;10.716;2023-11-19T13:08:04;12.60;99.90
21417;DHT22;10869;52.238;10.716;2023-11-19T13:10:31;12.60;99.90
21417;DHT22;10869;52.238;10.716;2023-11-19T13:13:07;12.50;99.90
21417;DHT22;10869;52.238;10.716;2023-11-19T13:15:37;12.40;99.90
21417;DHT22;10869;52.238;10.716;2023-11-19T13:18:05;12.30;99.90
21417;DHT22;10869;52.238;10.716;2023-11-19T13:20:33;12.30;99.90
21417;DHT22;10869;52.238;10.716;2023-11-19T13:23:03;12.20;99.90
21417;DHT22;10869;52.238;10.716;2023-11-19T13:25:30;12.10;99.90
21417;DHT22;10869;52.238;10.716;2023-11-19T13:27:56;12.00;99.90
21417;DHT22;10869;52.238;10.716;2023-11-19T13:33:44;11.90;99.90
21417;DHT22;10869;52.238;10.716;2023-11-19T13:36:17;11.90;99.90
21417;DHT22;10869;52.238;10.716;2023-11-19T13:38:44;11.90;99.90
21417;DHT22;10869;52.238;10.716;2023-11-19T13:41:11;11.80;99.90
21417;DHT22;10869;52.238;10.716;2023-11-19T13:43:37;11.80;99.90
21417;DHT22;10869;52.238;10.716;2023-11-19T13:49:25;11.80;99.90
21417;DHT22;10869;52.238;10.716;2023-11-19T13:55:13;11.80;99.90
21417;DHT22;10869;52.238;10.716;2023-11-19T14:01:01;11.80;99.90
21417;DHT22;10869;52.238;10.716;2023-11-19T14:06:50;11.60;99.90
21417;DHT22;10869;52.238;10.716;2023-11-19T14:12:38;11.60;99.90
21417;DHT22;10869;52.238;10.716;2023-11-19T14:15:05;11.60;99.90
21417;DHT22;10869;52.238;10.716;2023-11-19T14:21:04;11.60;99.90
21417;DHT22;10869;52.238;10.716;2023-11-19T14:26:52;11.60;99.90
21417;DHT22;10869;52.238;10.716;2023-11-19T14:29:18;11.60;99.90
21417;DHT22;10869;52.238;10.716;2023-11-19T14:31:44;11.60;99.90
21417;DHT22;10869;52.238;10.716;2023-11-19T14:34:10;11.50;99.90
21417;DHT22;10869;52.238;10.716;2023-11-19T14:36:35;11.50;99.90
21417;DHT22;10869;52.238;10.716;2023-11-19T14:42:24;11.40;99.90
21417;DHT22;10869;52.238;10.716;2023-11-19T14:44:51;11.40;99.90
21417;DHT22;10869;52.238;10.716;2023-11-19T14:47:21;11.30;99.90
21417;DHT22;10869;52.238;10.716;2023-11-19T14:49:47;11.30;99.90
21417;DHT22;10869;52.238;10.716;2023-11-19T14:52:13;11.30;99.90
21417;DHT22;10869;52.238;10.716;2023-11-19T14:54:40;11.20;99.90
21417;DHT22;10869;52.238;10.716;2023-11-19T14:57:12;11.10;99.90
21417;DHT22;10869;52.238;10.716;2023-11-19T14:59:38;11.00;99.90
21417;DHT22;10869;52.238;10.716;2023-11-19T15:02:04;11.00;99.90
21417;DHT22;10869;52.238;10.716;2023-11-19T15:04:31;10.90;99.90
21417;DHT22;10869;52.238;10.716;2023-11-19T15:07:03;10.90;99.90
21417;DHT22;10869;52.238;10.716;2023-11-19T15:09:32;10.80;99.90
21417;DHT22;10869;52.238;10.716;2023-11-19T15:11:59;10.80;99.90
21417;DHT22;10869;52.238;10.716;2023-11-19T15:14:31;10.80;99.90
21417;DHT22;10869;52.238;10.716;2023-11-19T15:20:18;10.70;99.90
21417;DHT22;10869;52.238;10.716;2023-11-19T15:22:44;10.70;99.90
21417;DHT22;10869;52.238;10.716;2023-11-19T15:25:10;10.60;99.90
21417;DHT22;10869;52.238;10.716;2023-11-19T15:30:57;10.50;99.90
21417;DHT22;10869;52.238;10.716;2023-11-19T15:33:23;10.40;99.90
21417;DHT22;10869;52.238;10.716;2023-11-19T15:35:49;10.30;99.90
21417;DHT22;10869;52.238;10.716;2023-11-19T15:38:15;10.30;99.90
21417;DHT22;10869;52.238;10.716;2023-11-19T15:40:41;10.40;99.90
21417;DHT22;10869;52.238;10.716;2023-11-19T15:43:08;10.40;99.90
21417;DHT22;10869;52.238;10.716;2023-11-19T15:45:33;10.40;99.90
21417;DHT22;10869;52.238;10.716;2023-11-19T15:48:05;10.40;99.90
21417;DHT22;10869;52.238;10.716;2023-11-19T15:50:31;10.40;99.90
21417;DHT22;10869;52.238;10.716;2023-11-19T16:11:05;10.40;99.90
21417;DHT22;10869;52.238;10.716;2023-11-19T16:13:33;10.40;99.90
21417;DHT22;10869;52.238;10.716;2023-11-19T16:19:21;10.40;99.90
21417;DHT22;10869;52.238;10.716;2023-11-19T16:21:47;10.40;99.90
21417;DHT22;10869;52.238;10.716;2023-11-19T16:24:15;10.30;99.90
21417;DHT22;10869;52.238;10.716;2023-11-19T16:26:44;10.20;99.90
21417;DHT22;10869;52.238;10.716;2023-11-19T16:29:11;10.20;99.90
21417;DHT22;10869;52.238;10.716;2023-11-19T16:31:37;10.20;99.90
21417;DHT22;10869;52.238;10.716;2023-11-19T16:37:26;10.10;99.90
21417;DHT22;10869;52.238;10.716;2023-11-19T16:39:52;10.10;99.90
21417;DHT22;10869;52.238;10.716;2023-11-19T16:47:31;10.00;99.90
21417;DHT22;10869;52.238;10.716;2023-11-19T16:49:57;10.00;99.90
21417;DHT22;10869;52.238;10.716;2023-11-19T16:52:23;10.00;99.90
21417;DHT22;10869;52.238;10.716;2023-11-19T16:54:50;10.00;99.90
21417;DHT22;10869;52.238;10.716;2023-11-19T16:57:16;9.90;99.90
21417;DHT22;10869;52.238;10.716;2023-11-19T16:59:43;9.90;99.90
21417;DHT22;10869;52.238;10.716;2023-11-19T17:02:09;9.90;99.90
21417;DHT22;10869;52.238;10.716;2023-11-19T17:04:37;9.90;99.90
21417;DHT22;10869;52.238;10.716;2023-11-19T17:07:02;9.90;99.90
21417;DHT22;10869;52.238;10.716;2023-11-19T17:09:28;9.80;99.90
21417;DHT22;10869;52.238;10.716;2023-11-19T17:11:54;9.90;99.90
21417;DHT22;10869;52.238;10.716;2023-11-19T17:24:43;9.80;99.90
21417;DHT22;10869;52.238;10.716;2023-11-19T17:27:09;9.70;99.90
21417;DHT22;10869;52.238;10.716;2023-11-19T17:29:35;9.70;99.90
21417;DHT22;10869;52.238;10.716;2023-11-19T17:32:00;9.80;99.90
21417;DHT22;10869;52.238;10.716;2023-11-19T17:34:29;9.80;99.90
21417;DHT22;10869;52.238;10.716;2023-11-19T17:36:56;9.70;99.90
21417;DHT22;10869;52.238;10.716;2023-11-19T17:39:22;9.80;99.90
21417;DHT22;10869;52.238;10.716;2023-11-19T17:41:48;9.70;99.90
21417;DHT22;10869;52.238;10.716;2023-11-19T17:44:14;9.70;99.90
21417;DHT22;10869;52.238;10.716;2023-11-19T17:47:05;9.70;99.90
21417;DHT22;10869;52.238;10.716;2023-11-19T17:49:35;9.70;99.90
21417;DHT22;10869;52.238;10.716;2023-11-19T18:04:58;9.60;99.90
21417;DHT22;10869;52.238;10.716;2023-11-19T18:10:01;9.60;99.90
21417;DHT22;10869;52.238;10.716;2023-11-19T18:12:27;9.50;99.90
21417;DHT22;10869;52.238;10.716;2023-11-19T18:14:53;9.50;99.90
21417;DHT22;10869;52.238;10.716;2023-11-19T18:17:19;9.50;99.90
21417;DHT22;10869;52.238;10.716;2023-11-19T18:19:45;9.50;99.90
21417;DHT22;10869;52.238;10.716;2023-11-19T18:22:12;9.50;99.90
21417;DHT22;10869;52.238;10.716;2023-11-19T18:24:37;9.50;99.90
21417;DHT22;10869;52.238;10.716;2023-11-19T18:30:26;9.60;99.90
21417;DHT22;10869;52.238;10.716;2023-11-19T18:41:26;9.50;99.90
21417;DHT22;10869;52.238;10.716;2023-11-19T18:43:52;9.50;99.90
21417;DHT22;10869;52.238;10.716;2023-11-19T18:46:18;9.50;99.90
21417;DHT22;10869;52.238;10.716;2023-11-19T18:48:44;9.50;99.90
21417;DHT22;10869;52.238;10.716;2023-11-19T18:51:10;9.50;99.90
21417;DHT22;10869;52.238;10.716;2023-11-19T18:53:42;9.50;99.90
21417;DHT22;10869;52.238;10.716;2023-11-19T18:56:09;9.50;99.90
21417;DHT22;10869;52.238;10.716;2023-11-19T18:58:40;9.50;99.90
21417;DHT22;10869;52.238;10.716;2023-11-19T19:01:06;9.50;99.90
21417;DHT22;10869;52.238;10.716;2023-11-19T19:03:34;9.50;99.90
21417;DHT22;10869;52.238;10.716;2023-11-19T19:06:04;9.50;99.90
21417;DHT22;10869;52.238;10.716;2023-11-19T19:08:33;9.50;99.90
21417;DHT22;10869;52.238;10.716;2023-11-19T19:11:03;9.50;99.90
21417;DHT22;10869;52.238;10.716;2023-11-19T19:13:41;9.50;99.90
21417;DHT22;10869;52.238;10.716;2023-11-19T19:16:08;9.50;99.90
21417;DHT22;10869;52.238;10.716;2023-11-19T19:18:34;9.50;99.90
21417;DHT22;10869;52.238;10.716;2023-11-19T19:21:01;9.50;99.90
21417;DHT22;10869;52.238;10.716;2023-11-19T19:23:27;9.50;99.90
21417;DHT22;10869;52.238;10.716;2023-11-19T19:25:53;9.50;99.90
21417;DHT22;10869;52.238;10.716;2023-11-19T19:28:19;9.50;99.90
21417;DHT22;10869;52.238;10.716;2023-11-19T19:30:49;9.60;99.90
21417;DHT22;10869;52.238;10.716;2023-11-19T19:33:17;9.50;99.90
21417;DHT22;10869;52.238;10.716;2023-11-19T19:35:43;9.60;99.90
21417;DHT22;10869;52.238;10.716;2023-11-19T19:38:09;9.50;99.90
21417;DHT22;10869;52.238;10.716;2023-11-19T19:40:35;9.50;99.90
21417;DHT22;10869;52.238;10.716;2023-11-19T19:45:40;9.50;99.90
21417;DHT22;10869;52.238;10.716;2023-11-19T19:48:06;9.50;99.90
21417;DHT22;10869;52.238;10.716;2023-11-19T19:50:32;9.50;99.90
21417;DHT22;10869;52.238;10.716;2023-11-19T19:52:58;9.50;99.90
21417;DHT22;10869;52.238;10.716;2023-11-19T19:55:24;9.50;99.90
21417;DHT22;10869;52.238;10.716;2023-11-19T19:57:49;9.50;99.90
21417;DHT22;10869;52.238;10.716;2023-11-19T20:00:15;9.60;99.90
21417;DHT22;10869;52.238;10.716;2023-11-19T20:02:42;9.50;99.90
21417;DHT22;10869;52.238;10.716;2023-11-19T20:05:08;9.50;99.90
21417;DHT22;10869;52.238;10.716;2023-11-19T20:07:43;9.50;99.90
21417;DHT22;10869;52.238;10.716;2023-11-19T20:10:10;9.50;99.90
21417;DHT22;10869;52.238;10.716;2023-11-19T20:12:36;9.50;99.90
21417;DHT22;10869;52.238;10.716;2023-11-19T20:15:05;9.50;99.90
21417;DHT22;10869;52.238;10.716;2023-11-19T20:17:32;9.50;99.90
21417;DHT22;10869;52.238;10.716;2023-11-19T20:19:58;9.50;99.90
21417;DHT22;10869;52.238;10.716;2023-11-19T20:22:24;9.50;99.90
21417;DHT22;10869;52.238;10.716;2023-11-19T20:24:50;9.50;99.90
21417;DHT22;10869;52.238;10.716;2023-11-19T20:27:16;9.50;99.90
21417;DHT22;10869;52.238;10.716;2023-11-19T20:33:12;9.50;99.90
21417;DHT22;10869;52.238;10.716;2023-11-19T20:35:37;9.50;99.90
21417;DHT22;10869;52.238;10.716;2023-11-19T20:38:05;9.50;99.90
21417;DHT22;10869;52.238;10.716;2023-11-19T20:40:31;9.50;99.90
21417;DHT22;10869;52.238;10.716;2023-11-19T20:42:56;9.50;99.90
21417;DHT22;10869;52.238;10.716;2023-11-19T20:45:22;9.60;99.90
21417;DHT22;10869;52.238;10.716;2023-11-19T20:51:15;9.50;99.90
21417;DHT22;10869;52.238;10.716;2023-11-19T20:53:41;9.60;99.90
21417;DHT22;10869;52.238;10.716;2023-11-19T20:56:07;9.50;99.90
21417;DHT22;10869;52.238;10.716;2023-11-19T20:58:34;9.50;99.90
21417;DHT22;10869;52.238;10.716;2023-11-19T21:01:00;9.50;99.90
21417;DHT22;10869;52.238;10.716;2023-11-19T21:03:28;9.50;99.90
21417;DHT22;10869;52.238;10.716;2023-11-19T21:05:54;9.50;99.90
21417;DHT22;10869;52.238;10.716;2023-11-19T21:11:42;9.50;99.90
21417;DHT22;10869;52.238;10.716;2023-11-19T21:14:08;9.50;99.90
21417;DHT22;10869;52.238;10.716;2023-11-19T21:19:56;9.50;99.90
21417;DHT22;10869;52.238;10.716;2023-11-19T21:22:21;9.40;99.90
21417;DHT22;10869;52.238;10.716;2023-11-19T21:24:47;9.40;99.90
21417;DHT22;10869;52.238;10.716;2023-11-19T21:27:14;9.40;99.90
21417;DHT22;10869;52.238;10.716;2023-11-19T21:33:02;9.40;99.90
21417;DHT22;10869;52.238;10.716;2023-11-19T21:35:28;9.40;99.90
21417;DHT22;10869;52.238;10.716;2023-11-19T21:37:53;9.40;99.90
21417;DHT22;10869;52.238;10.716;2023-11-19T21:40:19;9.40;99.90
21417;DHT22;10869;52.238;10.716;2023-11-19T21:42:45;9.40;99.90
21417;DHT22;10869;52.238;10.716;2023-11-19T21:45:11;9.40;99.90
21417;DHT22;10869;52.238;10.716;2023-11-19T21:47:37;9.40;99.90
21417;DHT22;10869;52.238;10.716;2023-11-19T21:50:03;9.40;99.90
21417;DHT22;10869;52.238;10.716;2023-11-19T21:55:54;9.40;99.90
21417;DHT22;10869;52.238;10.716;2023-11-19T22:01:42;9.40;99.90
21417;DHT22;10869;52.238;10.716;2023-11-19T22:04:07;9.30;99.90
21417;DHT22;10869;52.238;10.716;2023-11-19T22:06:33;9.30;99.90
21417;DHT22;10869;52.238;10.716;2023-11-19T22:12:21;9.30;99.90
21417;DHT22;10869;52.238;10.716;2023-11-19T22:20:52;9.30;99.90
21417;DHT22;10869;52.238;10.716;2023-11-19T22:23:17;9.30;99.90
21417;DHT22;10869;52.238;10.716;2023-11-19T22:25:43;9.30;99.90
21417;DHT22;10869;52.238;10.716;2023-11-19T22:28:10;9.30;99.90
21417;DHT22;10869;52.238;10.716;2023-11-19T22:30:36;9.30;99.90
21417;DHT22;10869;52.238;10.716;2023-11-19T22:33:01;9.30;99.90
21417;DHT22;10869;52.238;10.716;2023-11-19T22:35:28;9.30;99.90
21417;DHT22;10869;52.238;10.716;2023-11-19T22:37:54;9.30;99.90
21417;DHT22;10869;52.238;10.716;2023-11-19T22:40:20;9.30;99.90
21417;DHT22;10869;52.238;10.716;2023-11-19T22:42:56;9.30;99.90
21417;DHT22;10869;52.238;10.716;2023-11-19T22:45:26;9.30;99.90
21417;DHT22;10869;52.238;10.716;2023-11-19T22:47:52;9.20;99.90
21417;DHT22;10869;52.238;10.716;2023-11-19T22:50:18;9.30;99.90
21417;DHT22;10869;52.238;10.716;2023-11-19T22:52:43;9.30;99.90
21417;DHT22;10869;52.238;10.716;2023-11-19T22:55:10;9.20;99.90
21417;DHT22;10869;52.238;10.716;2023-11-19T22:57:36;9.20;99.90
21417;DHT22;10869;52.238;10.716;2023-11-19T23:00:03;9.30;99.90
21417;DHT22;10869;52.238;10.716;2023-11-19T23:02:35;9.20;99.90
21417;DHT22;10869;52.238;10.716;2023-11-19T23:05:01;9.20;99.90
21417;DHT22;10869;52.238;10.716;2023-11-19T23:07:28;9.20;99.90
21417;DHT22;10869;52.238;10.716;2023-11-19T23:09:54;9.20;99.90
21417;DHT22;10869;52.238;10.716;2023-11-19T23:12:20;9.20;99.90
21417;DHT22;10869;52.238;10.716;2023-11-19T23:14:47;9.20;99.90